sensor_id;sensor_type;location;lat;lon;timestamp;temperature;humidity
59961;DHT22;55902;-37.980;-63.602;2022-11-20T00:00:20;25.60;55.40
59961;DHT22;55902;-37.980;-63.602;2022-11-20T00:02:47;25.70;54.00
59961;DHT22;55902;-37.980;-63.602;2022-11-20T00:05:14;25.80;58.80
59961;DHT22;55902;-37.980;-63.602;2022-11-20T00:07:41;25.90;55.40
59961;DHT22;55902;-37.980;-63.602;2022-11-20T00:10:08;25.90;54.60
59961;DHT22;55902;-37.980;-63.602;2022-11-20T00:12:35;26.00;56.20
59961;DHT22;55902;-37.980;-63.602;2022-11-20T00:15:02;26.10;56.60
59961;DHT22;55902;-37.980;-63.602;2022-11-20T00:17:29;26.10;55.70
59961;DHT22;55902;-37.980;-63.602;2022-11-20T00:19:56;26.20;56.40
59961;DHT22;55902;-37.980;-63.602;2022-11-20T00:22:23;26.30;56.20
59961;DHT22;55902;-37.980;-63.602;2022-11-20T00:24:50;26.30;55.30
59961;DHT22;55902;-37.980;-63.602;2022-11-20T00:27:17;26.40;54.70
59961;DHT22;55902;-37.980;-63.602;2022-11-20T00:29:44;26.50;54.40
59961;DHT22;55902;-37.980;-63.602;2022-11-20T00:32:11;26.60;55.90
59961;DHT22;55902;-37.980;-63.602;2022-11-20T00:34:37;26.50;59.20
59961;DHT22;55902;-37.980;-63.602;2022-11-20T00:37:04;26.30;68.00
59961;DHT22;55902;-37.980;-63.602;2022-11-20T00:39:31;25.90;67.80
59961;DHT22;55902;-37.980;-63.602;2022-11-20T00:41:58;25.60;63.50
59961;DHT22;55902;-37.980;-63.602;2022-11-20T00:44:25;25.40;63.10
59961;DHT22;55902;-37.980;-63.602;2022-11-20T00:46:52;25.20;62.70
59961;DHT22;55902;-37.980;-63.602;2022-11-20T00:49:19;25.10;63.00
59961;DHT22;55902;-37.980;-63.602;2022-11-20T00:51:46;25.00;68.20
59961;DHT22;55902;-37.980;-63.602;2022-11-20T00:54:13;24.80;65.50
59961;DHT22;55902;-37.980;-63.602;2022-11-20T00:56:39;24.80;62.80
59961;DHT22;55902;-37.980;-63.602;2022-11-20T00:59:08;24.80;61.10
59961;DHT22;55902;-37.980;-63.602;2022-11-20T01:01:36;24.80;63.60
59961;DHT22;55902;-37.980;-63.602;2022-11-20T01:04:04;24.90;61.30
59961;DHT22;55902;-37.980;-63.602;2022-11-20T01:06:33;25.00;60.10
59961;DHT22;55902;-37.980;-63.602;2022-11-20T01:09:06;25.10;65.00
59961;DHT22;55902;-37.980;-63.602;2022-11-20T01:11:38;25.10;66.20
59961;DHT22;55902;-37.980;-63.602;2022-11-20T01:14:07;25.10;65.50
59961;DHT22;55902;-37.980;-63.602;2022-11-20T01:16:36;25.10;63.70
59961;DHT22;55902;-37.980;-63.602;2022-11-20T01:19:06;25.10;64.60
59961;DHT22;55902;-37.980;-63.602;2022-11-20T01:21:39;25.20;62.40
59961;DHT22;55902;-37.980;-63.602;2022-11-20T01:24:14;25.20;64.50
59961;DHT22;55902;-37.980;-63.602;2022-11-20T01:26:43;25.30;62.90
59961;DHT22;55902;-37.980;-63.602;2022-11-20T01:29:16;25.30;63.60
59961;DHT22;55902;-37.980;-63.602;2022-11-20T01:31:43;25.40;62.90
59961;DHT22;55902;-37.980;-63.602;2022-11-20T01:34:13;25.40;63.10
59961;DHT22;55902;-37.980;-63.602;2022-11-20T01:36:40;25.50;61.20
59961;DHT22;55902;-37.980;-63.602;2022-11-20T01:39:16;25.60;61.20
59961;DHT22;55902;-37.980;-63.602;2022-11-20T01:41:43;25.70;61.60
59961;DHT22;55902;-37.980;-63.602;2022-11-20T01:44:52;25.70;61.40
59961;DHT22;55902;-37.980;-63.602;2022-11-20T01:50:06;25.70;63.90
59961;DHT22;55902;-37.980;-63.602;2022-11-20T01:55:24;25.60;66.90
59961;DHT22;55902;-37.980;-63.602;2022-11-20T01:57:52;25.40;68.80
59961;DHT22;55902;-37.980;-63.602;2022-11-20T02:00:20;25.40;70.30
59961;DHT22;55902;-37.980;-63.602;2022-11-20T02:03:11;25.10;71.50
59961;DHT22;55902;-37.980;-63.602;2022-11-20T02:40:37;24.00;62.40
59961;DHT22;55902;-37.980;-63.602;2022-11-20T02:43:08;24.00;58.60
59961;DHT22;55902;-37.980;-63.602;2022-11-20T02:45:35;23.80;60.80
59961;DHT22;55902;-37.980;-63.602;2022-11-20T02:48:10;23.60;58.40
59961;DHT22;55902;-37.980;-63.602;2022-11-20T02:50:38;23.50;55.00
59961;DHT22;55902;-37.980;-63.602;2022-11-20T02:53:12;23.60;54.90
59961;DHT22;55902;-37.980;-63.602;2022-11-20T02:55:45;23.60;53.90
59961;DHT22;55902;-37.980;-63.602;2022-11-20T02:58:14;23.60;53.70
59961;DHT22;55902;-37.980;-63.602;2022-11-20T03:00:44;23.60;56.50
59961;DHT22;55902;-37.980;-63.602;2022-11-20T03:03:14;23.60;56.40
59961;DHT22;55902;-37.980;-63.602;2022-11-20T03:05:41;23.50;57.30
59961;DHT22;55902;-37.980;-63.602;2022-11-20T03:08:13;23.40;58.80
59961;DHT22;55902;-37.980;-63.602;2022-11-20T03:10:43;23.20;63.10
59961;DHT22;55902;-37.980;-63.602;2022-11-20T03:13:10;23.10;60.10
59961;DHT22;55902;-37.980;-63.602;2022-11-20T03:15:37;22.90;61.20
59961;DHT22;55902;-37.980;-63.602;2022-11-20T03:18:08;22.80;63.70
59961;DHT22;55902;-37.980;-63.602;2022-11-20T03:20:35;22.60;69.40
59961;DHT22;55902;-37.980;-63.602;2022-11-20T03:23:07;22.30;65.30
59961;DHT22;55902;-37.980;-63.602;2022-11-20T03:25:33;22.10;71.20
59961;DHT22;55902;-37.980;-63.602;2022-11-20T03:28:01;21.70;76.40
59961;DHT22;55902;-37.980;-63.602;2022-11-20T03:30:35;21.30;73.60
59961;DHT22;55902;-37.980;-63.602;2022-11-20T03:33:10;20.80;72.50
59961;DHT22;55902;-37.980;-63.602;2022-11-20T03:35:39;20.40;74.60
59961;DHT22;55902;-37.980;-63.602;2022-11-20T03:38:12;20.00;75.80
59961;DHT22;55902;-37.980;-63.602;2022-11-20T03:40:39;19.60;75.90
59961;DHT22;55902;-37.980;-63.602;2022-11-20T03:43:05;19.40;77.90
59961;DHT22;55902;-37.980;-63.602;2022-11-20T03:45:33;19.20;74.50
59961;DHT22;55902;-37.980;-63.602;2022-11-20T03:48:00;18.90;74.90
59961;DHT22;55902;-37.980;-63.602;2022-11-20T03:50:32;18.70;74.10
59961;DHT22;55902;-37.980;-63.602;2022-11-20T03:53:05;18.60;79.60
59961;DHT22;55902;-37.980;-63.602;2022-11-20T03:55:35;18.40;89.10
59961;DHT22;55902;-37.980;-63.602;2022-11-20T03:58:05;18.10;94.90
59961;DHT22;55902;-37.980;-63.602;2022-11-20T04:00:32;17.90;99.90
59961;DHT22;55902;-37.980;-63.602;2022-11-20T04:03:06;17.50;99.90
59961;DHT22;55902;-37.980;-63.602;2022-11-20T04:05:37;17.10;99.90
59961;DHT22;55902;-37.980;-63.602;2022-11-20T04:08:07;16.80;99.90
59961;DHT22;55902;-37.980;-63.602;2022-11-20T04:10:34;16.60;99.90
59961;DHT22;55902;-37.980;-63.602;2022-11-20T04:13:01;16.50;99.90
59961;DHT22;55902;-37.980;-63.602;2022-11-20T04:15:28;16.40;99.90
59961;DHT22;55902;-37.980;-63.602;2022-11-20T04:17:59;16.40;99.90
59961;DHT22;55902;-37.980;-63.602;2022-11-20T04:20:26;16.30;99.90
59961;DHT22;55902;-37.980;-63.602;2022-11-20T04:22:59;16.30;99.90
59961;DHT22;55902;-37.980;-63.602;2022-11-20T04:25:26;16.20;99.90
59961;DHT22;55902;-37.980;-63.602;2022-11-20T04:27:53;16.20;99.90
59961;DHT22;55902;-37.980;-63.602;2022-11-20T04:30:22;16.30;99.90
59961;DHT22;55902;-37.980;-63.602;2022-11-20T04:32:55;16.40;99.90
59961;DHT22;55902;-37.980;-63.602;2022-11-20T04:35:26;16.40;99.90
59961;DHT22;55902;-37.980;-63.602;2022-11-20T04:37:55;16.40;99.90
59961;DHT22;55902;-37.980;-63.602;2022-11-20T04:40:22;16.50;99.90
59961;DHT22;55902;-37.980;-63.602;2022-11-20T04:42:52;16.50;99.90
59961;DHT22;55902;-37.980;-63.602;2022-11-20T04:45:24;16.60;99.90
59961;DHT22;55902;-37.980;-63.602;2022-11-20T04:47:51;16.60;99.90
59961;DHT22;55902;-37.980;-63.602;2022-11-20T04:50:18;16.60;99.90
59961;DHT22;55902;-37.980;-63.602;2022-11-20T04:52:45;16.70;99.90
59961;DHT22;55902;-37.980;-63.602;2022-11-20T04:55:18;16.70;99.90
59961;DHT22;55902;-37.980;-63.602;2022-11-20T04:57:49;16.80;99.90
59961;DHT22;55902;-37.980;-63.602;2022-11-20T05:00:16;16.80;99.90
59961;DHT22;55902;-37.980;-63.602;2022-11-20T05:02:43;16.90;99.90
59961;DHT22;55902;-37.980;-63.602;2022-11-20T05:05:13;16.90;99.90
59961;DHT22;55902;-37.980;-63.602;2022-11-20T05:07:46;16.90;99.90
59961;DHT22;55902;-37.980;-63.602;2022-11-20T05:10:16;16.90;99.90
59961;DHT22;55902;-37.980;-63.602;2022-11-20T05:12:46;16.90;99.90
59961;DHT22;55902;-37.980;-63.602;2022-11-20T05:15:13;17.00;99.90
59961;DHT22;55902;-37.980;-63.602;2022-11-20T05:17:40;17.10;99.90
59961;DHT22;55902;-37.980;-63.602;2022-11-20T05:20:11;17.10;99.90
59961;DHT22;55902;-37.980;-63.602;2022-11-20T05:22:38;17.10;99.90
59961;DHT22;55902;-37.980;-63.602;2022-11-20T05:25:09;17.10;99.90
59961;DHT22;55902;-37.980;-63.602;2022-11-20T05:27:39;17.20;99.90
59961;DHT22;55902;-37.980;-63.602;2022-11-20T05:30:07;17.20;99.90
59961;DHT22;55902;-37.980;-63.602;2022-11-20T05:32:40;17.10;99.90
59961;DHT22;55902;-37.980;-63.602;2022-11-20T05:35:11;17.20;99.90
59961;DHT22;55902;-37.980;-63.602;2022-11-20T05:37:40;17.20;99.90
59961;DHT22;55902;-37.980;-63.602;2022-11-20T05:40:11;17.20;99.90
59961;DHT22;55902;-37.980;-63.602;2022-11-20T05:42:38;17.20;99.90
59961;DHT22;55902;-37.980;-63.602;2022-11-20T05:45:09;17.30;99.90
59961;DHT22;55902;-37.980;-63.602;2022-11-20T05:47:36;17.30;99.90
59961;DHT22;55902;-37.980;-63.602;2022-11-20T05:50:03;17.30;99.90
59961;DHT22;55902;-37.980;-63.602;2022-11-20T05:52:36;17.30;99.90
59961;DHT22;55902;-37.980;-63.602;2022-11-20T05:55:03;17.30;99.90
59961;DHT22;55902;-37.980;-63.602;2022-11-20T05:57:32;17.20;99.90
59961;DHT22;55902;-37.980;-63.602;2022-11-20T06:00:03;17.30;99.90
59961;DHT22;55902;-37.980;-63.602;2022-11-20T06:02:35;17.30;99.90
59961;DHT22;55902;-37.980;-63.602;2022-11-20T06:05:02;17.40;99.90
59961;DHT22;55902;-37.980;-63.602;2022-11-20T06:07:29;17.40;99.90
59961;DHT22;55902;-37.980;-63.602;2022-11-20T06:09:56;17.40;99.90
59961;DHT22;55902;-37.980;-63.602;2022-11-20T06:12:23;17.40;99.90
59961;DHT22;55902;-37.980;-63.602;2022-11-20T06:14:50;17.40;99.90
59961;DHT22;55902;-37.980;-63.602;2022-11-20T06:17:19;17.50;99.90
59961;DHT22;55902;-37.980;-63.602;2022-11-20T06:19:47;17.50;99.90
59961;DHT22;55902;-37.980;-63.602;2022-11-20T06:22:14;17.50;99.90
59961;DHT22;55902;-37.980;-63.602;2022-11-20T06:24:41;17.60;99.90
59961;DHT22;55902;-37.980;-63.602;2022-11-20T06:27:08;17.70;99.90
59961;DHT22;55902;-37.980;-63.602;2022-11-20T06:29:35;17.70;99.90
59961;DHT22;55902;-37.980;-63.602;2022-11-20T06:32:02;17.70;99.90
59961;DHT22;55902;-37.980;-63.602;2022-11-20T06:34:29;17.70;99.90
59961;DHT22;55902;-37.980;-63.602;2022-11-20T06:36:58;17.70;99.90
59961;DHT22;55902;-37.980;-63.602;2022-11-20T06:39:28;17.70;99.90
59961;DHT22;55902;-37.980;-63.602;2022-11-20T06:41:59;17.80;99.90
59961;DHT22;55902;-37.980;-63.602;2022-11-20T06:44:28;17.80;99.90
59961;DHT22;55902;-37.980;-63.602;2022-11-20T06:46:57;17.80;99.90
59961;DHT22;55902;-37.980;-63.602;2022-11-20T06:49:24;17.80;99.90
59961;DHT22;55902;-37.980;-63.602;2022-11-20T06:51:57;17.80;99.90
59961;DHT22;55902;-37.980;-63.602;2022-11-20T06:54:24;17.80;99.90
59961;DHT22;55902;-37.980;-63.602;2022-11-20T06:56:51;17.80;99.90
59961;DHT22;55902;-37.980;-63.602;2022-11-20T06:59:18;17.80;99.90
59961;DHT22;55902;-37.980;-63.602;2022-11-20T07:01:52;17.80;99.90
59961;DHT22;55902;-37.980;-63.602;2022-11-20T07:04:22;17.80;99.90
59961;DHT22;55902;-37.980;-63.602;2022-11-20T07:06:50;17.80;99.90
59961;DHT22;55902;-37.980;-63.602;2022-11-20T07:09:20;17.90;99.90
59961;DHT22;55902;-37.980;-63.602;2022-11-20T07:11:47;17.80;99.90
59961;DHT22;55902;-37.980;-63.602;2022-11-20T07:14:14;17.90;99.90
59961;DHT22;55902;-37.980;-63.602;2022-11-20T07:16:47;17.80;99.90
59961;DHT22;55902;-37.980;-63.602;2022-11-20T07:19:14;17.80;99.90
59961;DHT22;55902;-37.980;-63.602;2022-11-20T07:21:44;17.80;99.90
59961;DHT22;55902;-37.980;-63.602;2022-11-20T07:24:11;17.80;99.90
59961;DHT22;55902;-37.980;-63.602;2022-11-20T07:26:38;17.70;99.90
59961;DHT22;55902;-37.980;-63.602;2022-11-20T07:29:08;17.70;99.90
59961;DHT22;55902;-37.980;-63.602;2022-11-20T07:31:38;17.70;99.90
59961;DHT22;55902;-37.980;-63.602;2022-11-20T07:34:05;17.70;99.90
59961;DHT22;55902;-37.980;-63.602;2022-11-20T07:36:36;17.60;99.90
59961;DHT22;55902;-37.980;-63.602;2022-11-20T07:39:03;17.60;99.90
59961;DHT22;55902;-37.980;-63.602;2022-11-20T07:41:37;17.60;99.90
59961;DHT22;55902;-37.980;-63.602;2022-11-20T07:44:08;17.50;99.90
59961;DHT22;55902;-37.980;-63.602;2022-11-20T07:46:35;17.50;99.90
59961;DHT22;55902;-37.980;-63.602;2022-11-20T07:49:02;17.40;99.90
59961;DHT22;55902;-37.980;-63.602;2022-11-20T07:51:32;17.40;99.90
59961;DHT22;55902;-37.980;-63.602;2022-11-20T07:53:59;17.30;99.90
59961;DHT22;55902;-37.980;-63.602;2022-11-20T07:56:26;17.20;99.90
59961;DHT22;55902;-37.980;-63.602;2022-11-20T07:58:53;17.20;99.90
59961;DHT22;55902;-37.980;-63.602;2022-11-20T08:01:23;17.10;99.90
59961;DHT22;55902;-37.980;-63.602;2022-11-20T08:03:53;17.10;99.90
59961;DHT22;55902;-37.980;-63.602;2022-11-20T08:06:24;17.00;99.90
59961;DHT22;55902;-37.980;-63.602;2022-11-20T08:08:52;16.90;99.90
59961;DHT22;55902;-37.980;-63.602;2022-11-20T08:11:19;16.90;99.90
59961;DHT22;55902;-37.980;-63.602;2022-11-20T08:14:04;16.80;99.90
59961;DHT22;55902;-37.980;-63.602;2022-11-20T08:16:46;16.70;99.90
59961;DHT22;55902;-37.980;-63.602;2022-11-20T08:19:18;16.70;99.90
59961;DHT22;55902;-37.980;-63.602;2022-11-20T08:21:47;16.60;99.90
59961;DHT22;55902;-37.980;-63.602;2022-11-20T08:24:14;16.60;99.90
59961;DHT22;55902;-37.980;-63.602;2022-11-20T08:26:41;16.50;99.90
59961;DHT22;55902;-37.980;-63.602;2022-11-20T08:29:08;16.50;99.90
59961;DHT22;55902;-37.980;-63.602;2022-11-20T08:31:39;16.50;99.90
59961;DHT22;55902;-37.980;-63.602;2022-11-20T08:34:09;16.40;99.90
59961;DHT22;55902;-37.980;-63.602;2022-11-20T08:36:36;16.40;99.90
59961;DHT22;55902;-37.980;-63.602;2022-11-20T08:39:06;16.30;99.90
59961;DHT22;55902;-37.980;-63.602;2022-11-20T08:41:33;16.30;99.90
59961;DHT22;55902;-37.980;-63.602;2022-11-20T08:44:05;16.30;99.90
59961;DHT22;55902;-37.980;-63.602;2022-11-20T08:46:37;16.20;99.90
59961;DHT22;55902;-37.980;-63.602;2022-11-20T08:49:13;16.30;99.90
59961;DHT22;55902;-37.980;-63.602;2022-11-20T08:51:41;16.20;99.90
59961;DHT22;55902;-37.980;-63.602;2022-11-20T08:54:08;16.20;99.90
59961;DHT22;55902;-37.980;-63.602;2022-11-20T08:56:44;16.20;99.90
59961;DHT22;55902;-37.980;-63.602;2022-11-20T08:59:14;16.10;99.90
59961;DHT22;55902;-37.980;-63.602;2022-11-20T09:01:40;16.10;99.90
59961;DHT22;55902;-37.980;-63.602;2022-11-20T09:04:10;16.10;99.90
59961;DHT22;55902;-37.980;-63.602;2022-11-20T09:06:43;16.00;99.90
59961;DHT22;55902;-37.980;-63.602;2022-11-20T09:09:10;15.90;99.90
59961;DHT22;55902;-37.980;-63.602;2022-11-20T09:11:39;15.90;99.90
59961;DHT22;55902;-37.980;-63.602;2022-11-20T09:14:06;15.90;99.90
59961;DHT22;55902;-37.980;-63.602;2022-11-20T09:16:40;15.90;99.90
59961;DHT22;55902;-37.980;-63.602;2022-11-20T09:19:07;15.80;99.90
59961;DHT22;55902;-37.980;-63.602;2022-11-20T09:21:34;15.80;99.90
59961;DHT22;55902;-37.980;-63.602;2022-11-20T09:24:04;15.80;99.90
59961;DHT22;55902;-37.980;-63.602;2022-11-20T09:26:31;15.70;99.90
59961;DHT22;55902;-37.980;-63.602;2022-11-20T09:29:01;15.70;99.90
59961;DHT22;55902;-37.980;-63.602;2022-11-20T09:31:28;15.70;99.90
59961;DHT22;55902;-37.980;-63.602;2022-11-20T09:33:55;15.60;99.90
59961;DHT22;55902;-37.980;-63.602;2022-11-20T09:36:25;15.60;99.90
59961;DHT22;55902;-37.980;-63.602;2022-11-20T09:38:52;15.60;99.90
59961;DHT22;55902;-37.980;-63.602;2022-11-20T09:41:42;15.60;99.90
59961;DHT22;55902;-37.980;-63.602;2022-11-20T09:44:36;15.60;99.90
59961;DHT22;55902;-37.980;-63.602;2022-11-20T09:47:23;15.50;99.90
59961;DHT22;55902;-37.980;-63.602;2022-11-20T09:55:27;15.60;99.90
59961;DHT22;55902;-37.980;-63.602;2022-11-20T09:58:00;15.60;99.90
59961;DHT22;55902;-37.980;-63.602;2022-11-20T10:00:28;15.70;99.90
59961;DHT22;55902;-37.980;-63.602;2022-11-20T10:03:03;15.70;99.90
59961;DHT22;55902;-37.980;-63.602;2022-11-20T10:05:45;15.70;99.90
59961;DHT22;55902;-37.980;-63.602;2022-11-20T10:08:27;15.70;99.90
59961;DHT22;55902;-37.980;-63.602;2022-11-20T10:11:19;15.70;99.90
59961;DHT22;55902;-37.980;-63.602;2022-11-20T10:19:13;15.70;99.90
59961;DHT22;55902;-37.980;-63.602;2022-11-20T10:21:55;15.70;99.90
59961;DHT22;55902;-37.980;-63.602;2022-11-20T10:27:19;15.80;99.90
59961;DHT22;55902;-37.980;-63.602;2022-11-20T10:30:06;15.80;99.90
59961;DHT22;55902;-37.980;-63.602;2022-11-20T10:32:42;15.80;99.90
59961;DHT22;55902;-37.980;-63.602;2022-11-20T10:35:20;15.90;99.90
59961;DHT22;55902;-37.980;-63.602;2022-11-20T10:37:53;15.80;99.90
59961;DHT22;55902;-37.980;-63.602;2022-11-20T10:40:34;15.80;99.90
59961;DHT22;55902;-37.980;-63.602;2022-11-20T10:46:18;15.80;99.90
59961;DHT22;55902;-37.980;-63.602;2022-11-20T10:48:46;15.80;99.90
59961;DHT22;55902;-37.980;-63.602;2022-11-20T10:56:51;15.80;99.90
59961;DHT22;55902;-37.980;-63.602;2022-11-20T11:02:23;16.20;99.90
59961;DHT22;55902;-37.980;-63.602;2022-11-20T11:05:17;16.40;99.90
59961;DHT22;55902;-37.980;-63.602;2022-11-20T11:07:53;16.60;99.90
59961;DHT22;55902;-37.980;-63.602;2022-11-20T11:10:39;16.60;99.90
59961;DHT22;55902;-37.980;-63.602;2022-11-20T11:13:07;16.70;99.70
59961;DHT22;55902;-37.980;-63.602;2022-11-20T11:15:48;16.70;99.90
59961;DHT22;55902;-37.980;-63.602;2022-11-20T11:18:32;16.80;99.00
59961;DHT22;55902;-37.980;-63.602;2022-11-20T11:21:04;16.90;99.20
59961;DHT22;55902;-37.980;-63.602;2022-11-20T11:23:36;16.80;98.20
59961;DHT22;55902;-37.980;-63.602;2022-11-20T11:26:18;16.80;98.50
59961;DHT22;55902;-37.980;-63.602;2022-11-20T11:31:33;16.80;97.40
59961;DHT22;55902;-37.980;-63.602;2022-11-20T11:34:19;16.80;96.90
59961;DHT22;55902;-37.980;-63.602;2022-11-20T11:39:41;16.90;96.00
59961;DHT22;55902;-37.980;-63.602;2022-11-20T11:42:15;17.20;95.70
59961;DHT22;55902;-37.980;-63.602;2022-11-20T11:44:49;17.60;96.00
59961;DHT22;55902;-37.980;-63.602;2022-11-20T11:53:28;19.60;93.00
59961;DHT22;55902;-37.980;-63.602;2022-11-20T11:56:13;20.10;92.00
59961;DHT22;55902;-37.980;-63.602;2022-11-20T11:58:43;20.60;90.40
59961;DHT22;55902;-37.980;-63.602;2022-11-20T12:06:40;21.70;84.50
59961;DHT22;55902;-37.980;-63.602;2022-11-20T12:09:12;21.90;82.10
59961;DHT22;55902;-37.980;-63.602;2022-11-20T12:12:04;22.10;79.60
59961;DHT22;55902;-37.980;-63.602;2022-11-20T12:14:38;22.40;77.60
59961;DHT22;55902;-37.980;-63.602;2022-11-20T12:17:12;22.50;77.10
59961;DHT22;55902;-37.980;-63.602;2022-11-20T12:19:40;22.80;77.40
59961;DHT22;55902;-37.980;-63.602;2022-11-20T12:25:01;23.10;70.80
59961;DHT22;55902;-37.980;-63.602;2022-11-20T12:30:47;23.50;68.40
59961;DHT22;55902;-37.980;-63.602;2022-11-20T12:38:40;23.80;61.60
59961;DHT22;55902;-37.980;-63.602;2022-11-20T12:44:44;23.90;63.00
59961;DHT22;55902;-37.980;-63.602;2022-11-20T12:52:53;24.20;58.00
59961;DHT22;55902;-37.980;-63.602;2022-11-20T13:01:30;24.50;56.30
59961;DHT22;55902;-37.980;-63.602;2022-11-20T13:07:03;24.40;54.20
59961;DHT22;55902;-37.980;-63.602;2022-11-20T13:09:45;24.40;54.10
59961;DHT22;55902;-37.980;-63.602;2022-11-20T13:12:24;24.50;53.30
59961;DHT22;55902;-37.980;-63.602;2022-11-20T13:18:06;24.60;52.40
59961;DHT22;55902;-37.980;-63.602;2022-11-20T13:20:45;24.70;54.00
59961;DHT22;55902;-37.980;-63.602;2022-11-20T13:23:24;24.70;51.90
59961;DHT22;55902;-37.980;-63.602;2022-11-20T13:26:02;24.90;52.60
59961;DHT22;55902;-37.980;-63.602;2022-11-20T13:28:33;25.00;51.10
59961;DHT22;55902;-37.980;-63.602;2022-11-20T13:31:00;25.10;52.20
59961;DHT22;55902;-37.980;-63.602;2022-11-20T13:33:35;25.30;50.40
59961;DHT22;55902;-37.980;-63.602;2022-11-20T13:36:07;25.30;50.50
59961;DHT22;55902;-37.980;-63.602;2022-11-20T13:38:51;25.40;51.00
59961;DHT22;55902;-37.980;-63.602;2022-11-20T13:41:32;25.50;50.40
59961;DHT22;55902;-37.980;-63.602;2022-11-20T13:44:25;25.50;48.70
59961;DHT22;55902;-37.980;-63.602;2022-11-20T13:46:56;25.50;49.60
59961;DHT22;55902;-37.980;-63.602;2022-11-20T13:49:38;25.70;49.40
59961;DHT22;55902;-37.980;-63.602;2022-11-20T14:00:21;26.10;49.50
59961;DHT22;55902;-37.980;-63.602;2022-11-20T14:03:09;26.10;48.90
59961;DHT22;55902;-37.980;-63.602;2022-11-20T14:05:56;26.20;48.10
59961;DHT22;55902;-37.980;-63.602;2022-11-20T14:08:43;26.30;48.10
59961;DHT22;55902;-37.980;-63.602;2022-11-20T14:11:20;26.40;48.90
59961;DHT22;55902;-37.980;-63.602;2022-11-20T14:16:41;26.80;47.30
59961;DHT22;55902;-37.980;-63.602;2022-11-20T14:21:52;26.90;47.40
59961;DHT22;55902;-37.980;-63.602;2022-11-20T14:24:24;27.00;48.50
59961;DHT22;55902;-37.980;-63.602;2022-11-20T14:26:52;27.10;45.50
59961;DHT22;55902;-37.980;-63.602;2022-11-20T14:29:34;27.00;45.20
59961;DHT22;55902;-37.980;-63.602;2022-11-20T14:32:03;26.90;44.90
59961;DHT22;55902;-37.980;-63.602;2022-11-20T14:34:32;26.70;46.00
59961;DHT22;55902;-37.980;-63.602;2022-11-20T14:37:05;26.70;47.00
59961;DHT22;55902;-37.980;-63.602;2022-11-20T14:39:35;26.90;46.90
59961;DHT22;55902;-37.980;-63.602;2022-11-20T14:42:13;27.00;46.70
59961;DHT22;55902;-37.980;-63.602;2022-11-20T14:44:42;27.00;45.60
59961;DHT22;55902;-37.980;-63.602;2022-11-20T14:47:19;27.00;45.40
59961;DHT22;55902;-37.980;-63.602;2022-11-20T14:49:51;27.10;46.30
59961;DHT22;55902;-37.980;-63.602;2022-11-20T14:52:24;27.10;44.60
59961;DHT22;55902;-37.980;-63.602;2022-11-20T14:54:56;27.10;46.50
59961;DHT22;55902;-37.980;-63.602;2022-11-20T14:57:35;27.40;46.80
59961;DHT22;55902;-37.980;-63.602;2022-11-20T15:00:20;27.50;43.50
59961;DHT22;55902;-37.980;-63.602;2022-11-20T15:12:56;27.50;45.30
59961;DHT22;55902;-37.980;-63.602;2022-11-20T15:17:55;27.90;46.20
59961;DHT22;55902;-37.980;-63.602;2022-11-20T15:20:31;28.10;44.80
59961;DHT22;55902;-37.980;-63.602;2022-11-20T15:22:59;28.10;44.00
59961;DHT22;55902;-37.980;-63.602;2022-11-20T15:25:29;28.00;43.90
59961;DHT22;55902;-37.980;-63.602;2022-11-20T15:27:58;28.00;43.10
59961;DHT22;55902;-37.980;-63.602;2022-11-20T15:30:25;28.00;43.60
59961;DHT22;55902;-37.980;-63.602;2022-11-20T15:32:52;28.10;44.30
59961;DHT22;55902;-37.980;-63.602;2022-11-20T15:35:30;28.20;43.20
59961;DHT22;55902;-37.980;-63.602;2022-11-20T15:37:56;28.40;44.20
59961;DHT22;55902;-37.980;-63.602;2022-11-20T15:40:26;28.50;44.40
59961;DHT22;55902;-37.980;-63.602;2022-11-20T15:43:06;28.60;42.30
59961;DHT22;55902;-37.980;-63.602;2022-11-20T15:45:45;28.50;43.50
59961;DHT22;55902;-37.980;-63.602;2022-11-20T15:48:19;28.50;42.70
59961;DHT22;55902;-37.980;-63.602;2022-11-20T15:51:04;28.60;43.30
59961;DHT22;55902;-37.980;-63.602;2022-11-20T15:53:38;28.90;43.30
59961;DHT22;55902;-37.980;-63.602;2022-11-20T15:56:13;29.10;41.50
59961;DHT22;55902;-37.980;-63.602;2022-11-20T15:58:41;29.10;41.40
59961;DHT22;55902;-37.980;-63.602;2022-11-20T16:01:16;29.30;42.10
59961;DHT22;55902;-37.980;-63.602;2022-11-20T16:03:47;29.30;41.50
59961;DHT22;55902;-37.980;-63.602;2022-11-20T16:06:17;29.60;43.40
59961;DHT22;55902;-37.980;-63.602;2022-11-20T16:08:52;30.00;41.40
59961;DHT22;55902;-37.980;-63.602;2022-11-20T16:11:32;30.30;41.70
59961;DHT22;55902;-37.980;-63.602;2022-11-20T16:14:04;30.50;42.50
59961;DHT22;55902;-37.980;-63.602;2022-11-20T16:16:55;30.90;42.00
59961;DHT22;55902;-37.980;-63.602;2022-11-20T16:19:26;31.20;41.10
59961;DHT22;55902;-37.980;-63.602;2022-11-20T16:21:57;31.40;39.30
59961;DHT22;55902;-37.980;-63.602;2022-11-20T16:24:27;31.50;40.10
59961;DHT22;55902;-37.980;-63.602;2022-11-20T16:26:59;31.60;39.10
59961;DHT22;55902;-37.980;-63.602;2022-11-20T16:29:26;31.70;39.80
59961;DHT22;55902;-37.980;-63.602;2022-11-20T16:32:00;31.90;40.70
59961;DHT22;55902;-37.980;-63.602;2022-11-20T16:36:59;32.30;39.50
59961;DHT22;55902;-37.980;-63.602;2022-11-20T16:39:26;32.60;39.50
59961;DHT22;55902;-37.980;-63.602;2022-11-20T16:41:54;32.90;37.60
59961;DHT22;55902;-37.980;-63.602;2022-11-20T16:44:28;33.00;37.00
59961;DHT22;55902;-37.980;-63.602;2022-11-20T16:47:01;32.70;34.80
59961;DHT22;55902;-37.980;-63.602;2022-11-20T16:49:32;32.30;35.60
59961;DHT22;55902;-37.980;-63.602;2022-11-20T16:52:22;32.00;36.20
59961;DHT22;55902;-37.980;-63.602;2022-11-20T16:54:50;32.20;38.10
59961;DHT22;55902;-37.980;-63.602;2022-11-20T16:57:18;32.10;34.70
59961;DHT22;55902;-37.980;-63.602;2022-11-20T16:59:50;31.80;34.30
59961;DHT22;55902;-37.980;-63.602;2022-11-20T17:02:23;31.60;35.90
59961;DHT22;55902;-37.980;-63.602;2022-11-20T17:04:52;31.80;37.60
59961;DHT22;55902;-37.980;-63.602;2022-11-20T17:07:24;32.20;37.40
59961;DHT22;55902;-37.980;-63.602;2022-11-20T17:09:52;32.40;36.40
59961;DHT22;55902;-37.980;-63.602;2022-11-20T17:12:24;32.60;35.30
59961;DHT22;55902;-37.980;-63.602;2022-11-20T17:14:53;32.90;35.50
59961;DHT22;55902;-37.980;-63.602;2022-11-20T17:17:28;33.10;35.30
59961;DHT22;55902;-37.980;-63.602;2022-11-20T17:20:02;33.20;33.80
59961;DHT22;55902;-37.980;-63.602;2022-11-20T17:22:36;33.10;34.00
59961;DHT22;55902;-37.980;-63.602;2022-11-20T17:25:07;33.30;35.50
59961;DHT22;55902;-37.980;-63.602;2022-11-20T17:27:37;33.60;34.20
59961;DHT22;55902;-37.980;-63.602;2022-11-20T17:30:06;33.90;34.60
59961;DHT22;55902;-37.980;-63.602;2022-11-20T17:32:33;34.20;33.20
59961;DHT22;55902;-37.980;-63.602;2022-11-20T17:56:37;31.80;34.70
59961;DHT22;55902;-37.980;-63.602;2022-11-20T17:59:24;31.50;35.10